sensor_id;sensor_type;location;lat;lon;timestamp;temperature;humidity
34776;DHT22;20989;52.566;13.346;2023-03-11T00:02:24;19.60;45.00
34776;DHT22;20989;52.566;13.346;2023-03-11T00:05:32;19.60;45.60
34776;DHT22;20989;52.566;13.346;2023-03-11T00:08:33;19.60;44.40
34776;DHT22;20989;52.566;13.346;2023-03-11T00:11:34;19.60;44.30
34776;DHT22;20989;52.566;13.346;2023-03-11T00:14:34;19.60;44.80
34776;DHT22;20989;52.566;13.346;2023-03-11T00:17:36;19.60;45.00
34776;DHT22;20989;52.566;13.346;2023-03-11T00:20:39;19.50;44.90
34776;DHT22;20989;52.566;13.346;2023-03-11T00:23:40;19.60;45.60
34776;DHT22;20989;52.566;13.346;2023-03-11T00:26:40;19.60;45.10
34776;DHT22;20989;52.566;13.346;2023-03-11T00:29:41;19.60;44.90
34776;DHT22;20989;52.566;13.346;2023-03-11T00:32:42;19.60;44.40
34776;DHT22;20989;52.566;13.346;2023-03-11T00:35:43;19.50;44.80
34776;DHT22;20989;52.566;13.346;2023-03-11T00:38:43;19.50;44.60
34776;DHT22;20989;52.566;13.346;2023-03-11T00:41:44;19.60;44.50
34776;DHT22;20989;52.566;13.346;2023-03-11T00:44:45;19.50;45.70
34776;DHT22;20989;52.566;13.346;2023-03-11T00:47:45;19.50;44.50
34776;DHT22;20989;52.566;13.346;2023-03-11T00:50:46;19.50;44.90
34776;DHT22;20989;52.566;13.346;2023-03-11T00:53:47;19.50;45.20
34776;DHT22;20989;52.566;13.346;2023-03-11T00:56:47;19.50;44.60
34776;DHT22;20989;52.566;13.346;2023-03-11T00:59:48;19.50;45.50
34776;DHT22;20989;52.566;13.346;2023-03-11T01:02:49;19.50;44.50
34776;DHT22;20989;52.566;13.346;2023-03-11T01:05:51;19.50;45.40
34776;DHT22;20989;52.566;13.346;2023-03-11T01:08:52;19.50;45.00
34776;DHT22;20989;52.566;13.346;2023-03-11T01:11:52;19.50;45.20
34776;DHT22;20989;52.566;13.346;2023-03-11T01:14:54;19.50;44.70
34776;DHT22;20989;52.566;13.346;2023-03-11T01:17:55;19.50;44.40
34776;DHT22;20989;52.566;13.346;2023-03-11T01:20:56;19.50;44.50
34776;DHT22;20989;52.566;13.346;2023-03-11T01:23:56;19.40;44.30
34776;DHT22;20989;52.566;13.346;2023-03-11T01:26:57;19.40;44.60
34776;DHT22;20989;52.566;13.346;2023-03-11T01:29:58;19.40;44.90
34776;DHT22;20989;52.566;13.346;2023-03-11T01:32:58;19.50;45.10
34776;DHT22;20989;52.566;13.346;2023-03-11T01:35:59;19.40;44.80
34776;DHT22;20989;52.566;13.346;2023-03-11T01:42:01;19.40;45.10
34776;DHT22;20989;52.566;13.346;2023-03-11T01:45:01;19.40;45.40
34776;DHT22;20989;52.566;13.346;2023-03-11T01:48:07;19.40;44.10
34776;DHT22;20989;52.566;13.346;2023-03-11T01:51:08;19.40;44.40
34776;DHT22;20989;52.566;13.346;2023-03-11T01:54:11;19.40;44.40
34776;DHT22;20989;52.566;13.346;2023-03-11T01:57:13;19.40;44.60
34776;DHT22;20989;52.566;13.346;2023-03-11T02:00:15;19.40;44.50
34776;DHT22;20989;52.566;13.346;2023-03-11T02:03:27;19.40;44.00
34776;DHT22;20989;52.566;13.346;2023-03-11T02:06:31;19.40;44.50
34776;DHT22;20989;52.566;13.346;2023-03-11T02:09:31;19.40;45.40
34776;DHT22;20989;52.566;13.346;2023-03-11T02:12:34;19.30;44.10
34776;DHT22;20989;52.566;13.346;2023-03-11T02:15:36;19.30;44.50
34776;DHT22;20989;52.566;13.346;2023-03-11T02:18:37;19.30;44.40
34776;DHT22;20989;52.566;13.346;2023-03-11T02:21:38;19.30;43.90
34776;DHT22;20989;52.566;13.346;2023-03-11T02:24:47;19.30;44.00
34776;DHT22;20989;52.566;13.346;2023-03-11T02:27:51;19.30;43.50
34776;DHT22;20989;52.566;13.346;2023-03-11T02:30:54;19.30;43.80
34776;DHT22;20989;52.566;13.346;2023-03-11T02:33:57;19.30;43.70
34776;DHT22;20989;52.566;13.346;2023-03-11T02:36:59;19.30;44.00
34776;DHT22;20989;52.566;13.346;2023-03-11T02:43:36;19.30;44.20
34776;DHT22;20989;52.566;13.346;2023-03-11T02:46:39;19.30;44.10
34776;DHT22;20989;52.566;13.346;2023-03-11T02:49:41;19.30;43.90
34776;DHT22;20989;52.566;13.346;2023-03-11T02:52:41;19.30;44.00
34776;DHT22;20989;52.566;13.346;2023-03-11T02:55:42;19.30;43.70
34776;DHT22;20989;52.566;13.346;2023-03-11T02:58:43;19.30;44.00
34776;DHT22;20989;52.566;13.346;2023-03-11T03:01:43;19.30;44.60
34776;DHT22;20989;52.566;13.346;2023-03-11T03:04:44;19.30;44.30
34776;DHT22;20989;52.566;13.346;2023-03-11T03:07:46;19.20;43.90
34776;DHT22;20989;52.566;13.346;2023-03-11T03:10:47;19.20;44.30
34776;DHT22;20989;52.566;13.346;2023-03-11T03:13:48;19.20;43.80
34776;DHT22;20989;52.566;13.346;2023-03-11T03:16:48;19.20;44.20
34776;DHT22;20989;52.566;13.346;2023-03-11T03:19:49;19.20;44.50
34776;DHT22;20989;52.566;13.346;2023-03-11T03:22:50;19.20;43.60
34776;DHT22;20989;52.566;13.346;2023-03-11T03:25:51;19.20;43.60
34776;DHT22;20989;52.566;13.346;2023-03-11T03:28:51;19.20;44.00
34776;DHT22;20989;52.566;13.346;2023-03-11T03:31:52;19.20;44.00
34776;DHT22;20989;52.566;13.346;2023-03-11T03:34:52;19.20;43.70
34776;DHT22;20989;52.566;13.346;2023-03-11T03:37:59;19.20;44.60
34776;DHT22;20989;52.566;13.346;2023-03-11T03:41:00;19.20;44.10
34776;DHT22;20989;52.566;13.346;2023-03-11T03:44:01;19.20;44.20
34776;DHT22;20989;52.566;13.346;2023-03-11T03:47:02;19.20;44.30
34776;DHT22;20989;52.566;13.346;2023-03-11T03:50:05;19.20;43.60
34776;DHT22;20989;52.566;13.346;2023-03-11T03:53:06;19.20;44.10
34776;DHT22;20989;52.566;13.346;2023-03-11T04:05:12;19.20;43.80
34776;DHT22;20989;52.566;13.346;2023-03-11T04:08:13;19.20;43.90
34776;DHT22;20989;52.566;13.346;2023-03-11T04:11:14;19.10;44.00
34776;DHT22;20989;52.566;13.346;2023-03-11T04:14:14;19.10;43.90
34776;DHT22;20989;52.566;13.346;2023-03-11T04:17:15;19.10;43.70
34776;DHT22;20989;52.566;13.346;2023-03-11T04:20:17;19.10;44.20
34776;DHT22;20989;52.566;13.346;2023-03-11T04:23:18;19.10;43.90
34776;DHT22;20989;52.566;13.346;2023-03-11T04:26:19;19.10;44.10
34776;DHT22;20989;52.566;13.346;2023-03-11T04:29:20;19.10;44.20
34776;DHT22;20989;52.566;13.346;2023-03-11T04:32:20;19.10;44.50
34776;DHT22;20989;52.566;13.346;2023-03-11T04:35:22;19.10;43.70
34776;DHT22;20989;52.566;13.346;2023-03-11T04:38:24;19.10;44.10
34776;DHT22;20989;52.566;13.346;2023-03-11T04:41:25;19.10;44.10
34776;DHT22;20989;52.566;13.346;2023-03-11T04:44:25;19.10;43.90
34776;DHT22;20989;52.566;13.346;2023-03-11T04:47:27;19.10;44.10
34776;DHT22;20989;52.566;13.346;2023-03-11T04:50:27;19.10;43.70
34776;DHT22;20989;52.566;13.346;2023-03-11T04:53:28;19.10;44.10
34776;DHT22;20989;52.566;13.346;2023-03-11T04:56:29;19.10;43.70
34776;DHT22;20989;52.566;13.346;2023-03-11T05:03:26;19.10;44.40
34776;DHT22;20989;52.566;13.346;2023-03-11T05:06:27;19.10;44.20
34776;DHT22;20989;52.566;13.346;2023-03-11T05:09:28;19.10;44.00
34776;DHT22;20989;52.566;13.346;2023-03-11T05:12:28;19.10;44.20
34776;DHT22;20989;52.566;13.346;2023-03-11T05:15:29;19.10;44.00
34776;DHT22;20989;52.566;13.346;2023-03-11T05:18:31;19.10;44.60
34776;DHT22;20989;52.566;13.346;2023-03-11T05:21:32;19.10;44.10
34776;DHT22;20989;52.566;13.346;2023-03-11T05:24:32;19.10;44.40
34776;DHT22;20989;52.566;13.346;2023-03-11T05:27:33;19.10;43.80
34776;DHT22;20989;52.566;13.346;2023-03-11T05:30:34;19.10;44.00
34776;DHT22;20989;52.566;13.346;2023-03-11T05:33:35;19.10;44.00
34776;DHT22;20989;52.566;13.346;2023-03-11T05:36:35;19.10;44.20
34776;DHT22;20989;52.566;13.346;2023-03-11T05:39:36;19.10;43.90
34776;DHT22;20989;52.566;13.346;2023-03-11T05:42:37;19.10;44.10
34776;DHT22;20989;52.566;13.346;2023-03-11T05:45:41;19.10;44.60
34776;DHT22;20989;52.566;13.346;2023-03-11T05:48:42;19.10;44.00
34776;DHT22;20989;52.566;13.346;2023-03-11T05:51:42;19.10;44.00
34776;DHT22;20989;52.566;13.346;2023-03-11T05:54:43;19.10;44.10
34776;DHT22;20989;52.566;13.346;2023-03-11T05:57:44;19.10;44.10
34776;DHT22;20989;52.566;13.346;2023-03-11T06:00:44;19.10;44.20
34776;DHT22;20989;52.566;13.346;2023-03-11T06:03:45;19.10;44.10
34776;DHT22;20989;52.566;13.346;2023-03-11T06:06:46;19.10;44.20
34776;DHT22;20989;52.566;13.346;2023-03-11T06:09:49;19.10;44.20
34776;DHT22;20989;52.566;13.346;2023-03-11T06:12:49;19.10;43.90
34776;DHT22;20989;52.566;13.346;2023-03-11T06:15:50;19.00;44.20
34776;DHT22;20989;52.566;13.346;2023-03-11T06:18:51;19.00;43.90
34776;DHT22;20989;52.566;13.346;2023-03-11T06:21:52;19.00;44.50
34776;DHT22;20989;52.566;13.346;2023-03-11T06:24:52;19.10;44.30
34776;DHT22;20989;52.566;13.346;2023-03-11T06:27:53;19.10;44.00
34776;DHT22;20989;52.566;13.346;2023-03-11T06:30:54;19.10;44.10
34776;DHT22;20989;52.566;13.346;2023-03-11T06:33:58;19.10;44.30
34776;DHT22;20989;52.566;13.346;2023-03-11T06:36:59;19.10;44.70
34776;DHT22;20989;52.566;13.346;2023-03-11T06:39:59;19.10;45.00
34776;DHT22;20989;52.566;13.346;2023-03-11T06:43:00;19.10;45.10
34776;DHT22;20989;52.566;13.346;2023-03-11T06:46:06;19.10;45.00
34776;DHT22;20989;52.566;13.346;2023-03-11T06:49:08;19.00;44.70
34776;DHT22;20989;52.566;13.346;2023-03-11T06:52:09;19.10;45.10
34776;DHT22;20989;52.566;13.346;2023-03-11T06:55:10;19.10;44.80
34776;DHT22;20989;52.566;13.346;2023-03-11T06:58:10;19.10;45.20
34776;DHT22;20989;52.566;13.346;2023-03-11T07:01:19;19.10;44.90
34776;DHT22;20989;52.566;13.346;2023-03-11T07:04:20;19.00;44.80
34776;DHT22;20989;52.566;13.346;2023-03-11T07:07:21;19.00;44.80
34776;DHT22;20989;52.566;13.346;2023-03-11T07:10:21;19.10;44.80
34776;DHT22;20989;52.566;13.346;2023-03-11T07:13:22;19.10;45.00
34776;DHT22;20989;52.566;13.346;2023-03-11T07:16:27;19.10;45.20
34776;DHT22;20989;52.566;13.346;2023-03-11T07:19:28;19.00;44.60
34776;DHT22;20989;52.566;13.346;2023-03-11T07:22:29;19.00;44.70
34776;DHT22;20989;52.566;13.346;2023-03-11T07:25:30;19.00;44.60
34776;DHT22;20989;52.566;13.346;2023-03-11T07:28:31;19.00;44.30
34776;DHT22;20989;52.566;13.346;2023-03-11T07:31:33;19.00;44.50
34776;DHT22;20989;52.566;13.346;2023-03-11T07:34:34;19.00;44.60
34776;DHT22;20989;52.566;13.346;2023-03-11T07:37:35;19.00;44.50
34776;DHT22;20989;52.566;13.346;2023-03-11T07:40:36;19.00;44.60
34776;DHT22;20989;52.566;13.346;2023-03-11T07:43:37;19.00;44.40
34776;DHT22;20989;52.566;13.346;2023-03-11T07:46:38;19.00;44.70
34776;DHT22;20989;52.566;13.346;2023-03-11T07:49:39;19.00;44.70
34776;DHT22;20989;52.566;13.346;2023-03-11T07:52:39;19.00;44.30
34776;DHT22;20989;52.566;13.346;2023-03-11T07:55:40;19.00;44.40
34776;DHT22;20989;52.566;13.346;2023-03-11T07:58:42;19.00;44.60
34776;DHT22;20989;52.566;13.346;2023-03-11T08:01:44;19.00;44.40
34776;DHT22;20989;52.566;13.346;2023-03-11T08:04:46;19.00;44.80
34776;DHT22;20989;52.566;13.346;2023-03-11T08:07:47;19.00;44.50
34776;DHT22;20989;52.566;13.346;2023-03-11T08:10:48;18.90;44.40
34776;DHT22;20989;52.566;13.346;2023-03-11T08:13:49;19.00;44.40
34776;DHT22;20989;52.566;13.346;2023-03-11T08:16:50;19.00;44.30
34776;DHT22;20989;52.566;13.346;2023-03-11T08:19:51;19.00;44.60
34776;DHT22;20989;52.566;13.346;2023-03-11T08:22:52;19.00;44.40
34776;DHT22;20989;52.566;13.346;2023-03-11T08:25:52;18.90;44.40
34776;DHT22;20989;52.566;13.346;2023-03-11T08:28:54;18.90;44.80
34776;DHT22;20989;52.566;13.346;2023-03-11T08:31:55;18.90;44.10
34776;DHT22;20989;52.566;13.346;2023-03-11T08:34:56;19.00;44.40
34776;DHT22;20989;52.566;13.346;2023-03-11T08:37:57;18.90;44.20
34776;DHT22;20989;52.566;13.346;2023-03-11T08:40:58;18.90;44.20
34776;DHT22;20989;52.566;13.346;2023-03-11T08:43:59;19.00;44.40
34776;DHT22;20989;52.566;13.346;2023-03-11T08:47:00;18.90;44.50
34776;DHT22;20989;52.566;13.346;2023-03-11T08:50:06;19.00;44.40
34776;DHT22;20989;52.566;13.346;2023-03-11T08:53:08;18.90;44.40
34776;DHT22;20989;52.566;13.346;2023-03-11T08:56:09;18.90;44.40
34776;DHT22;20989;52.566;13.346;2023-03-11T08:59:10;18.90;44.40
34776;DHT22;20989;52.566;13.346;2023-03-11T09:02:10;18.90;44.40
34776;DHT22;20989;52.566;13.346;2023-03-11T09:05:11;18.90;44.40
34776;DHT22;20989;52.566;13.346;2023-03-11T09:08:11;18.90;44.30
34776;DHT22;20989;52.566;13.346;2023-03-11T09:11:13;18.90;44.10
34776;DHT22;20989;52.566;13.346;2023-03-11T09:14:14;18.90;44.30
34776;DHT22;20989;52.566;13.346;2023-03-11T09:17:15;18.90;44.30
34776;DHT22;20989;52.566;13.346;2023-03-11T09:20:16;18.90;44.40
34776;DHT22;20989;52.566;13.346;2023-03-11T09:23:17;18.90;44.30
34776;DHT22;20989;52.566;13.346;2023-03-11T09:26:18;18.90;44.50
34776;DHT22;20989;52.566;13.346;2023-03-11T09:29:21;18.90;44.50
34776;DHT22;20989;52.566;13.346;2023-03-11T09:32:22;18.90;44.40
34776;DHT22;20989;52.566;13.346;2023-03-11T09:35:23;18.90;44.50
34776;DHT22;20989;52.566;13.346;2023-03-11T09:38:24;18.90;44.50
34776;DHT22;20989;52.566;13.346;2023-03-11T09:41:44;18.90;44.60
34776;DHT22;20989;52.566;13.346;2023-03-11T09:51:35;18.90;44.60
34776;DHT22;20989;52.566;13.346;2023-03-11T09:54:29;18.90;44.50
34776;DHT22;20989;52.566;13.346;2023-03-11T09:57:35;18.90;44.50
34776;DHT22;20989;52.566;13.346;2023-03-11T10:00:37;18.90;44.50
34776;DHT22;20989;52.566;13.346;2023-03-11T10:03:39;18.90;44.50
34776;DHT22;20989;52.566;13.346;2023-03-11T10:06:41;18.90;44.70
34776;DHT22;20989;52.566;13.346;2023-03-11T10:09:54;18.90;44.70
34776;DHT22;20989;52.566;13.346;2023-03-11T10:13:37;19.00;45.10
34776;DHT22;20989;52.566;13.346;2023-03-11T10:16:45;19.20;44.60
34776;DHT22;20989;52.566;13.346;2023-03-11T10:26:51;19.30;44.10
34776;DHT22;20989;52.566;13.346;2023-03-11T10:37:25;19.50;44.10
34776;DHT22;20989;52.566;13.346;2023-03-11T10:40:15;19.50;44.20
34776;DHT22;20989;52.566;13.346;2023-03-11T10:46:26;19.50;44.10
34776;DHT22;20989;52.566;13.346;2023-03-11T10:49:28;19.60;44.10
34776;DHT22;20989;52.566;13.346;2023-03-11T10:52:28;19.50;44.10
34776;DHT22;20989;52.566;13.346;2023-03-11T10:55:29;19.60;44.10
34776;DHT22;20989;52.566;13.346;2023-03-11T10:58:30;19.70;44.30
34776;DHT22;20989;52.566;13.346;2023-03-11T11:01:31;19.80;44.10
34776;DHT22;20989;52.566;13.346;2023-03-11T11:04:37;19.70;44.10
34776;DHT22;20989;52.566;13.346;2023-03-11T11:07:38;19.70;44.30
34776;DHT22;20989;52.566;13.346;2023-03-11T11:11:20;19.60;44.70
34776;DHT22;20989;52.566;13.346;2023-03-11T11:14:21;19.60;44.70
34776;DHT22;20989;52.566;13.346;2023-03-11T11:17:28;19.60;44.70
34776;DHT22;20989;52.566;13.346;2023-03-11T11:20:30;19.60;44.40
34776;DHT22;20989;52.566;13.346;2023-03-11T11:23:35;19.60;44.80
34776;DHT22;20989;52.566;13.346;2023-03-11T11:26:37;19.60;44.60
34776;DHT22;20989;52.566;13.346;2023-03-11T11:29:37;19.70;44.80
34776;DHT22;20989;52.566;13.346;2023-03-11T11:32:38;19.70;44.70
34776;DHT22;20989;52.566;13.346;2023-03-11T11:35:48;19.70;44.60
34776;DHT22;20989;52.566;13.346;2023-03-11T11:38:52;19.70;46.00
34776;DHT22;20989;52.566;13.346;2023-03-11T11:41:56;19.70;45.20
34776;DHT22;20989;52.566;13.346;2023-03-11T11:45:05;19.70;45.60
34776;DHT22;20989;52.566;13.346;2023-03-11T11:51:37;20.50;44.30
34776;DHT22;20989;52.566;13.346;2023-03-11T11:55:03;20.10;44.70
34776;DHT22;20989;52.566;13.346;2023-03-11T11:58:08;19.90;44.90
34776;DHT22;20989;52.566;13.346;2023-03-11T12:01:13;19.80;44.80
34776;DHT22;20989;52.566;13.346;2023-03-11T12:11:06;19.80;44.80
34776;DHT22;20989;52.566;13.346;2023-03-11T12:17:09;19.80;46.00
34776;DHT22;20989;52.566;13.346;2023-03-11T12:20:13;19.80;45.30
34776;DHT22;20989;52.566;13.346;2023-03-11T12:26:31;19.80;45.20
34776;DHT22;20989;52.566;13.346;2023-03-11T12:29:39;19.80;45.10
34776;DHT22;20989;52.566;13.346;2023-03-11T12:32:48;19.80;45.20
34776;DHT22;20989;52.566;13.346;2023-03-11T12:35:53;19.80;45.10
34776;DHT22;20989;52.566;13.346;2023-03-11T12:38:55;19.80;45.20
34776;DHT22;20989;52.566;13.346;2023-03-11T12:42:20;19.80;45.10
34776;DHT22;20989;52.566;13.346;2023-03-11T12:45:51;19.80;45.20
34776;DHT22;20989;52.566;13.346;2023-03-11T12:49:12;19.90;44.70
34776;DHT22;20989;52.566;13.346;2023-03-11T13:05:32;20.00;45.00
34776;DHT22;20989;52.566;13.346;2023-03-11T13:08:50;20.00;44.80
34776;DHT22;20989;52.566;13.346;2023-03-11T13:11:53;20.00;44.80
34776;DHT22;20989;52.566;13.346;2023-03-11T13:15:35;20.20;44.40
34776;DHT22;20989;52.566;13.346;2023-03-11T13:18:36;20.20;44.30
34776;DHT22;20989;52.566;13.346;2023-03-11T13:21:38;20.10;44.10
34776;DHT22;20989;52.566;13.346;2023-03-11T13:24:48;20.00;44.60
34776;DHT22;20989;52.566;13.346;2023-03-11T13:27:50;20.00;44.60
34776;DHT22;20989;52.566;13.346;2023-03-11T13:31:33;20.00;44.80
34776;DHT22;20989;52.566;13.346;2023-03-11T13:41:39;19.70;42.70
34776;DHT22;20989;52.566;13.346;2023-03-11T13:44:41;19.60;42.50
34776;DHT22;20989;52.566;13.346;2023-03-11T13:47:44;19.70;42.10
34776;DHT22;20989;52.566;13.346;2023-03-11T13:51:13;19.70;42.30
34776;DHT22;20989;52.566;13.346;2023-03-11T13:57:28;19.80;42.80
34776;DHT22;20989;52.566;13.346;2023-03-11T14:00:30;19.90;42.40
34776;DHT22;20989;52.566;13.346;2023-03-11T14:03:40;20.00;42.40
34776;DHT22;20989;52.566;13.346;2023-03-11T14:06:41;19.90;42.10
34776;DHT22;20989;52.566;13.346;2023-03-11T14:09:42;19.80;41.60
34776;DHT22;20989;52.566;13.346;2023-03-11T14:12:43;20.00;43.00
34776;DHT22;20989;52.566;13.346;2023-03-11T14:19:05;20.20;43.00
34776;DHT22;20989;52.566;13.346;2023-03-11T14:22:09;20.30;43.00
34776;DHT22;20989;52.566;13.346;2023-03-11T14:25:18;20.30;42.10
34776;DHT22;20989;52.566;13.346;2023-03-11T14:28:20;20.40;42.20
34776;DHT22;20989;52.566;13.346;2023-03-11T14:34:24;20.60;42.10
34776;DHT22;20989;52.566;13.346;2023-03-11T14:37:31;20.70;42.00
34776;DHT22;20989;52.566;13.346;2023-03-11T14:40:34;20.70;42.00
34776;DHT22;20989;52.566;13.346;2023-03-11T14:43:42;20.90;42.60
34776;DHT22;20989;52.566;13.346;2023-03-11T14:46:44;20.80;41.80
34776;DHT22;20989;52.566;13.346;2023-03-11T14:49:47;20.90;41.90
34776;DHT22;20989;52.566;13.346;2023-03-11T14:56:04;20.90;41.30
34776;DHT22;20989;52.566;13.346;2023-03-11T14:59:25;20.90;41.00
34776;DHT22;20989;52.566;13.346;2023-03-11T15:02:38;21.00;40.50
34776;DHT22;20989;52.566;13.346;2023-03-11T15:06:14;21.00;40.20
34776;DHT22;20989;52.566;13.346;2023-03-11T15:09:17;21.00;40.20
34776;DHT22;20989;52.566;13.346;2023-03-11T15:12:38;21.00;40.00
34776;DHT22;20989;52.566;13.346;2023-03-11T15:15:40;21.10;40.00
34776;DHT22;20989;52.566;13.346;2023-03-11T15:18:41;21.10;39.70
34776;DHT22;20989;52.566;13.346;2023-03-11T15:21:46;21.10;39.50
34776;DHT22;20989;52.566;13.346;2023-03-11T15:24:55;21.20;39.60
34776;DHT22;20989;52.566;13.346;2023-03-11T15:27:56;21.20;39.50
34776;DHT22;20989;52.566;13.346;2023-03-11T15:37:23;21.20;38.80
34776;DHT22;20989;52.566;13.346;2023-03-11T15:40:28;21.30;39.20
34776;DHT22;20989;52.566;13.346;2023-03-11T15:43:34;21.30;39.00
34776;DHT22;20989;52.566;13.346;2023-03-11T15:46:40;21.30;38.70
34776;DHT22;20989;52.566;13.346;2023-03-11T15:49:40;21.40;39.00
34776;DHT22;20989;52.566;13.346;2023-03-11T15:52:41;21.40;38.80
34776;DHT22;20989;52.566;13.346;2023-03-11T15:55:42;21.50;38.60
34776;DHT22;20989;52.566;13.346;2023-03-11T15:58:43;21.50;39.40
34776;DHT22;20989;52.566;13.346;2023-03-11T16:01:44;21.50;39.00
34776;DHT22;20989;52.566;13.346;2023-03-11T16:04:46;21.40;38.00
34776;DHT22;20989;52.566;13.346;2023-03-11T16:07:47;21.50;39.70
34776;DHT22;20989;52.566;13.346;2023-03-11T16:10:48;21.50;41.40
34776;DHT22;20989;52.566;13.346;2023-03-11T16:13:49;21.50;40.10
34776;DHT22;20989;52.566;13.346;2023-03-11T16:16:50;21.70;40.40
34776;DHT22;20989;52.566;13.346;2023-03-11T16:19:50;21.70;40.70
34776;DHT22;20989;52.566;13.346;2023-03-11T16:22:53;21.80;40.70
34776;DHT22;20989;52.566;13.346;2023-03-11T16:26:00;21.80;39.40
34776;DHT22;20989;52.566;13.346;2023-03-11T16:29:01;21.70;39.50
34776;DHT22;20989;52.566;13.346;2023-03-11T16:32:02;21.80;41.20
34776;DHT22;20989;52.566;13.346;2023-03-11T16:35:03;21.80;40.40
34776;DHT22;20989;52.566;13.346;2023-03-11T16:38:06;21.80;40.80
34776;DHT22;20989;52.566;13.346;2023-03-11T16:41:07;21.80;40.00
34776;DHT22;20989;52.566;13.346;2023-03-11T16:44:08;21.80;39.90
34776;DHT22;20989;52.566;13.346;2023-03-11T16:47:09;21.60;40.60
34776;DHT22;20989;52.566;13.346;2023-03-11T16:50:11;21.50;40.30
34776;DHT22;20989;52.566;13.346;2023-03-11T16:53:11;21.30;40.50
34776;DHT22;20989;52.566;13.346;2023-03-11T16:56:15;21.30;40.50
34776;DHT22;20989;52.566;13.346;2023-03-11T16:59:17;21.40;41.00
34776;DHT22;20989;52.566;13.346;2023-03-11T17:02:18;21.50;40.80
34776;DHT22;20989;52.566;13.346;2023-03-11T17:05:19;21.60;41.20
34776;DHT22;20989;52.566;13.346;2023-03-11T17:08:20;21.50;41.10
34776;DHT22;20989;52.566;13.346;2023-03-11T17:11:23;21.50;42.30
34776;DHT22;20989;52.566;13.346;2023-03-11T17:14:27;21.50;42.00
34776;DHT22;20989;52.566;13.346;2023-03-11T17:17:29;21.40;42.00
34776;DHT22;20989;52.566;13.346;2023-03-11T17:20:30;21.40;40.90
34776;DHT22;20989;52.566;13.346;2023-03-11T17:23:31;21.20;40.80
34776;DHT22;20989;52.566;13.346;2023-03-11T17:26:32;21.20;40.60
34776;DHT22;20989;52.566;13.346;2023-03-11T17:29:32;21.10;40.90
34776;DHT22;20989;52.566;13.346;2023-03-11T17:32:33;21.10;40.80
34776;DHT22;20989;52.566;13.346;2023-03-11T17:35:34;21.00;41.10
34776;DHT22;20989;52.566;13.346;2023-03-11T17:38:35;21.00;41.30
34776;DHT22;20989;52.566;13.346;2023-03-11T17:41:35;20.90;41.50
34776;DHT22;20989;52.566;13.346;2023-03-11T17:44:36;20.90;41.50
34776;DHT22;20989;52.566;13.346;2023-03-11T17:47:37;20.80;41.60
34776;DHT22;20989;52.566;13.346;2023-03-11T17:50:38;20.80;41.70
34776;DHT22;20989;52.566;13.346;2023-03-11T17:53:40;20.80;41.80
34776;DHT22;20989;52.566;13.346;2023-03-11T17:56:41;20.70;41.90
34776;DHT22;20989;52.566;13.346;2023-03-11T17:59:41;20.70;42.50
34776;DHT22;20989;52.566;13.346;2023-03-11T18:02:42;20.70;42.10
34776;DHT22;20989;52.566;13.346;2023-03-11T18:05:56;20.60;42.10
34776;DHT22;20989;52.566;13.346;2023-03-11T18:08:57;20.60;42.40
34776;DHT22;20989;52.566;13.346;2023-03-11T18:11:58;20.60;42.20
34776;DHT22;20989;52.566;13.346;2023-03-11T18:15:02;20.60;42.50
34776;DHT22;20989;52.566;13.346;2023-03-11T18:18:07;20.60;42.60
34776;DHT22;20989;52.566;13.346;2023-03-11T18:21:11;20.50;42.60
34776;DHT22;20989;52.566;13.346;2023-03-11T18:24:12;20.50;42.60
34776;DHT22;20989;52.566;13.346;2023-03-11T18:27:13;20.50;42.60
34776;DHT22;20989;52.566;13.346;2023-03-11T18:30:13;20.50;42.60
34776;DHT22;20989;52.566;13.346;2023-03-11T18:33:15;20.50;42.70
34776;DHT22;20989;52.566;13.346;2023-03-11T18:36:27;20.50;42.90
34776;DHT22;20989;52.566;13.346;2023-03-11T18:39:28;20.50;42.70
34776;DHT22;20989;52.566;13.346;2023-03-11T18:42:28;20.50;43.00
34776;DHT22;20989;52.566;13.346;2023-03-11T18:45:29;20.40;43.10
34776;DHT22;20989;52.566;13.346;2023-03-11T18:48:30;20.40;43.10
34776;DHT22;20989;52.566;13.346;2023-03-11T18:51:31;20.40;43.30
34776;DHT22;20989;52.566;13.346;2023-03-11T18:54:32;20.30;43.50
34776;DHT22;20989;52.566;13.346;2023-03-11T18:57:32;20.30;43.50
34776;DHT22;20989;52.566;13.346;2023-03-11T19:00:33;20.30;43.00
34776;DHT22;20989;52.566;13.346;2023-03-11T19:03:34;20.30;43.70
34776;DHT22;20989;52.566;13.346;2023-03-11T19:06:36;20.30;43.00
34776;DHT22;20989;52.566;13.346;2023-03-11T19:09:37;20.30;43.20
34776;DHT22;20989;52.566;13.346;2023-03-11T19:12:37;20.30;43.30
34776;DHT22;20989;52.566;13.346;2023-03-11T19:15:40;20.20;43.40
34776;DHT22;20989;52.566;13.346;2023-03-11T19:18:40;20.20;43.40
34776;DHT22;20989;52.566;13.346;2023-03-11T19:21:43;20.20;43.50
34776;DHT22;20989;52.566;13.346;2023-03-11T19:24:43;20.20;43.10
34776;DHT22;20989;52.566;13.346;2023-03-11T19:27:45;20.20;43.40
34776;DHT22;20989;52.566;13.346;2023-03-11T19:30:56;20.20;43.50
34776;DHT22;20989;52.566;13.346;2023-03-11T19:33:57;20.10;43.60
34776;DHT22;20989;52.566;13.346;2023-03-11T19:36:59;20.10;43.30
34776;DHT22;20989;52.566;13.346;2023-03-11T19:39:59;20.10;43.30
34776;DHT22;20989;52.566;13.346;2023-03-11T19:43:00;20.10;43.40
34776;DHT22;20989;52.566;13.346;2023-03-11T19:46:02;20.10;43.40
34776;DHT22;20989;52.566;13.346;2023-03-11T19:49:02;20.10;43.50
34776;DHT22;20989;52.566;13.346;2023-03-11T19:52:03;20.10;43.40
34776;DHT22;20989;52.566;13.346;2023-03-11T19:55:09;20.10;43.40
34776;DHT22;20989;52.566;13.346;2023-03-11T19:58:10;20.10;43.60
34776;DHT22;20989;52.566;13.346;2023-03-11T20:01:18;20.00;43.50
34776;DHT22;20989;52.566;13.346;2023-03-11T20:04:19;20.00;43.20
34776;DHT22;20989;52.566;13.346;2023-03-11T20:07:20;20.10;43.30
34776;DHT22;20989;52.566;13.346;2023-03-11T20:10:21;20.00;43.60
34776;DHT22;20989;52.566;13.346;2023-03-11T20:13:23;20.10;43.30
34776;DHT22;20989;52.566;13.346;2023-03-11T20:16:24;20.00;43.40
34776;DHT22;20989;52.566;13.346;2023-03-11T20:19:25;20.00;43.40
34776;DHT22;20989;52.566;13.346;2023-03-11T20:22:26;20.00;43.40
34776;DHT22;20989;52.566;13.346;2023-03-11T20:25:26;20.00;43.50
34776;DHT22;20989;52.566;13.346;2023-03-11T20:28:30;20.00;43.40
34776;DHT22;20989;52.566;13.346;2023-03-11T20:31:31;20.00;43.50
34776;DHT22;20989;52.566;13.346;2023-03-11T20:34:31;20.00;43.50
34776;DHT22;20989;52.566;13.346;2023-03-11T20:37:32;19.90;43.60